createdAt,value
2023-05-04T00:00:44.329Z,63.34
2023-05-04T00:03:10.759Z,62.86
2023-05-04T00:05:37.268Z,62.72
2023-05-04T00:08:03.777Z,63.30
2023-05-04T00:10:30.229Z,63.28
2023-05-04T00:12:56.680Z,63.42
2023-05-04T00:15:23.361Z,63.57
2023-05-04T00:17:49.834Z,63.71
2023-05-04T00:20:16.389Z,63.63
2023-05-04T00:22:42.867Z,63.45
2023-05-04T00:25:09.459Z,64.16
2023-05-04T00:27:35.952Z,63.80
2023-05-04T00:30:02.963Z,63.85
2023-05-04T00:32:30.803Z,64.23
2023-05-04T00:34:57.357Z,64.26
2023-05-04T00:37:23.809Z,64.69
2023-05-04T00:39:50.249Z,64.03
2023-05-04T00:42:16.742Z,64.33
2023-05-04T00:44:44.687Z,64.88
2023-05-04T00:47:12.381Z,65.09
2023-05-04T00:49:39.491Z,64.68
2023-05-04T00:52:06.049Z,64.38
2023-05-04T00:54:33.291Z,65.02
2023-05-04T00:56:59.769Z,64.93
2023-05-04T00:59:26.247Z,65.57
2023-05-04T01:01:53.320Z,65.28
2023-05-04T01:04:19.884Z,64.99
2023-05-04T01:06:48.505Z,65.38
2023-05-04T01:09:24.017Z,66.32
2023-05-04T01:11:56.306Z,65.75
2023-05-04T01:14:23.020Z,65.50
2023-05-04T01:16:53.470Z,65.51
2023-05-04T01:19:20.109Z,65.92
2023-05-04T01:21:46.530Z,66.13
2023-05-04T01:24:13.237Z,65.87
2023-05-04T01:26:42.248Z,66.15
2023-05-04T01:29:16.581Z,66.48
2023-05-04T01:31:43.796Z,66.31
2023-05-04T01:34:10.799Z,66.38
2023-05-04T01:36:37.516Z,66.50
2023-05-04T01:39:04.104Z,66.51
2023-05-04T01:41:30.677Z,66.24
2023-05-04T01:43:58.135Z,66.38
2023-05-04T01:46:24.651Z,65.95
2023-05-04T01:48:51.307Z,66.32
2023-05-04T01:51:17.767Z,66.37
2023-05-04T01:53:44.251Z,66.09
2023-05-04T01:56:11.047Z,66.50
2023-05-04T01:58:37.477Z,66.54
2023-05-04T02:01:03.884Z,66.09
2023-05-04T02:03:31.502Z,65.97
2023-05-04T02:05:58.115Z,66.30
2023-05-04T02:08:24.797Z,66.32
2023-05-04T02:10:51.450Z,66.44
2023-05-04T02:13:19.344Z,66.16
2023-05-04T02:15:45.901Z,66.63
2023-05-04T02:18:12.480Z,66.31
2023-05-04T02:20:38.993Z,66.42
2023-05-04T02:23:05.798Z,66.23
2023-05-04T02:25:32.268Z,66.65
2023-05-04T02:27:58.785Z,66.97
2023-05-04T02:30:25.208Z,66.90
2023-05-04T02:32:51.666Z,66.62
2023-05-04T02:35:18.140Z,67.00
2023-05-04T02:37:44.646Z,67.30
2023-05-04T02:40:11.824Z,67.29
2023-05-04T02:42:38.241Z,67.39
2023-05-04T02:45:07.352Z,67.23
2023-05-04T02:47:33.840Z,67.01
2023-05-04T02:50:00.320Z,67.53
2023-05-04T02:52:26.764Z,67.75
2023-05-04T02:54:53.328Z,67.61
2023-05-04T02:57:19.898Z,67.71
2023-05-04T02:59:46.751Z,67.95
2023-05-04T03:02:13.303Z,68.26
2023-05-04T03:04:39.768Z,67.99
2023-05-04T03:07:06.592Z,67.94
2023-05-04T03:09:33.023Z,67.71
2023-05-04T03:11:59.566Z,67.98
2023-05-04T03:14:26.326Z,68.47
2023-05-04T03:16:52.994Z,68.36
2023-05-04T03:19:21.913Z,68.09
2023-05-04T03:21:48.530Z,68.70
2023-05-04T03:24:17.352Z,68.46
2023-05-04T03:26:43.891Z,68.72
2023-05-04T03:29:10.821Z,68.77
2023-05-04T03:31:37.377Z,68.74
2023-05-04T03:34:03.858Z,68.43
2023-05-04T03:36:30.332Z,68.67
2023-05-04T03:38:56.787Z,68.61
2023-05-04T03:41:23.188Z,68.82
2023-05-04T03:43:49.603Z,69.14
2023-05-04T03:46:16.055Z,69.11
2023-05-04T03:48:42.471Z,69.17
2023-05-04T03:51:08.897Z,68.92
2023-05-04T03:53:35.799Z,69.08
2023-05-04T03:56:03.334Z,68.87
2023-05-04T03:58:29.885Z,68.71
2023-05-04T04:00:56.312Z,68.56
2023-05-04T04:03:22.944Z,68.63
2023-05-04T04:05:49.983Z,69.10
2023-05-04T04:08:16.503Z,69.39
2023-05-04T04:10:43.006Z,68.92
2023-05-04T04:13:09.439Z,68.82
2023-05-04T04:15:35.977Z,69.04
2023-05-04T04:18:02.516Z,69.17
2023-05-04T04:20:29.115Z,69.52
2023-05-04T04:22:55.584Z,69.70
2023-05-04T04:25:22.577Z,69.30
2023-05-04T04:27:49.065Z,69.34
2023-05-04T04:30:15.619Z,69.47
2023-05-04T04:32:42.167Z,69.61
2023-05-04T04:35:09.013Z,69.14
2023-05-04T04:37:35.473Z,69.53
2023-05-04T04:40:02.053Z,69.59
2023-05-04T04:42:28.770Z,69.40
2023-05-04T04:44:56.009Z,69.54
2023-05-04T04:47:22.629Z,69.48
2023-05-04T04:49:49.030Z,69.41
2023-05-04T04:52:15.796Z,69.41
2023-05-04T04:54:42.314Z,69.29
2023-05-04T04:57:09.756Z,69.11
2023-05-04T04:59:37.951Z,68.86
2023-05-04T05:02:04.407Z,68.56
2023-05-04T05:04:30.911Z,68.41
2023-05-04T05:06:57.451Z,69.15
2023-05-04T05:09:23.964Z,68.83
2023-05-04T05:11:50.388Z,68.89
2023-05-04T05:14:16.786Z,68.89
2023-05-04T05:16:43.347Z,68.79
2023-05-04T05:19:09.842Z,68.54
2023-05-04T05:21:36.270Z,68.34
2023-05-04T05:24:02.914Z,68.31
2023-05-04T05:26:29.533Z,68.33
2023-05-04T05:28:56.064Z,68.08
2023-05-04T05:31:22.578Z,67.81
2023-05-04T05:33:49.162Z,67.95
2023-05-04T05:36:15.627Z,68.25
2023-05-04T05:38:42.071Z,67.65
2023-05-04T05:41:09.792Z,67.45
2023-05-04T05:43:38.553Z,67.61
2023-05-04T05:46:06.265Z,67.65
2023-05-04T05:48:33.227Z,67.83
2023-05-04T05:50:59.912Z,67.73
2023-05-04T05:53:26.704Z,67.85
2023-05-04T05:55:53.129Z,67.25
2023-05-04T05:58:19.528Z,67.36
2023-05-04T06:00:46.213Z,67.76
2023-05-04T06:03:12.813Z,67.25
2023-05-04T06:05:39.408Z,67.06
2023-05-04T06:08:05.947Z,66.95
2023-05-04T06:10:33.515Z,66.79
2023-05-04T06:12:59.951Z,66.61
2023-05-04T06:15:26.456Z,66.68
2023-05-04T06:17:52.984Z,66.25
2023-05-04T06:20:19.444Z,65.91
2023-05-04T06:22:45.936Z,65.69
2023-05-04T06:25:12.653Z,65.60
2023-05-04T06:27:39.314Z,65.22
2023-05-04T06:30:06.706Z,65.36
2023-05-04T06:32:33.638Z,65.06
2023-05-04T06:35:00.102Z,64.85
2023-05-04T06:37:26.772Z,65.46
2023-05-04T06:39:54.600Z,64.71
2023-05-04T06:42:21.091Z,64.77
2023-05-04T06:44:47.809Z,64.73
2023-05-04T06:47:15.662Z,64.53
2023-05-04T06:49:42.174Z,64.48
2023-05-04T06:52:08.578Z,64.20
2023-05-04T06:54:35.640Z,63.75
2023-05-04T06:57:03.328Z,63.58
2023-05-04T06:59:29.775Z,63.92
2023-05-04T07:01:56.342Z,63.62
2023-05-04T07:04:23.391Z,63.71
2023-05-04T07:06:50.662Z,63.37
2023-05-04T07:09:19.507Z,63.07
2023-05-04T07:11:46.244Z,62.18
2023-05-04T07:14:12.816Z,62.13
2023-05-04T07:16:39.383Z,61.84
2023-05-04T07:19:05.919Z,61.91
2023-05-04T07:21:32.509Z,60.72
2023-05-04T07:23:59.063Z,60.68
2023-05-04T07:26:25.739Z,60.29
2023-05-04T07:28:52.239Z,59.72
2023-05-04T07:31:18.715Z,58.99
2023-05-04T07:33:45.669Z,58.74
2023-05-04T07:36:12.320Z,58.58
2023-05-04T07:38:38.790Z,57.92
2023-05-04T07:41:05.368Z,58.12
2023-05-04T07:43:31.888Z,57.79
2023-05-04T07:45:58.328Z,56.79
2023-05-04T07:48:26.588Z,56.66
2023-05-04T07:50:53.729Z,56.23
2023-05-04T07:53:25.303Z,55.61
2023-05-04T07:55:54.196Z,55.71
2023-05-04T07:58:20.763Z,55.74
2023-05-04T08:00:47.309Z,55.55
2023-05-04T08:03:13.777Z,55.01
2023-05-04T08:05:40.350Z,55.18
2023-05-04T08:08:08.887Z,54.00
2023-05-04T08:10:38.752Z,53.56
2023-05-04T08:13:05.821Z,54.01
2023-05-04T08:15:32.765Z,54.06
2023-05-04T08:17:59.322Z,54.13
2023-05-04T08:20:25.951Z,53.74
2023-05-04T08:22:52.548Z,53.46
2023-05-04T08:25:19.260Z,52.80
2023-05-04T08:27:45.836Z,53.11
2023-05-04T08:30:12.780Z,52.88
2023-05-04T08:32:39.495Z,52.50
2023-05-04T08:35:06.609Z,52.46
2023-05-04T08:37:33.203Z,52.59
2023-05-04T08:39:59.702Z,52.09
2023-05-04T08:42:31.097Z,51.08
2023-05-04T08:45:01.130Z,51.41
2023-05-04T08:47:29.005Z,51.09
2023-05-04T08:49:56.430Z,50.73
2023-05-04T08:52:24.524Z,49.79
2023-05-04T08:54:54.357Z,50.33
2023-05-04T08:57:22.928Z,49.78
2023-05-04T08:59:52.378Z,49.81
2023-05-04T09:02:23.225Z,48.61
2023-05-04T09:04:51.158Z,49.51
2023-05-04T09:07:21.595Z,48.21
2023-05-04T09:09:50.664Z,48.76
2023-05-04T09:12:18.088Z,47.34
2023-05-04T09:14:44.776Z,47.24
2023-05-04T09:17:29.507Z,46.05
2023-05-04T09:20:00.269Z,45.44
2023-05-04T09:22:28.783Z,46.42
2023-05-04T09:25:09.009Z,45.63
2023-05-04T09:27:35.607Z,45.89
2023-05-04T09:30:02.106Z,45.53
2023-05-04T09:32:28.648Z,44.77
2023-05-04T09:34:55.166Z,44.08
2023-05-04T09:37:22.281Z,42.47
2023-05-04T09:39:57.456Z,40.19
2023-05-04T09:42:25.217Z,40.39
2023-05-04T09:44:59.753Z,39.29
2023-05-04T09:47:54.199Z,38.69
2023-05-04T09:50:23.088Z,38.30
2023-05-04T09:52:50.070Z,38.25
2023-05-04T09:55:20.450Z,37.32
2023-05-04T09:57:48.679Z,36.81
2023-05-04T10:00:17.277Z,36.47
2023-05-04T10:02:45.265Z,36.19
2023-05-04T10:05:21.621Z,35.49
2023-05-04T10:07:48.201Z,35.91
2023-05-04T10:10:15.633Z,35.46
2023-05-04T10:12:44.338Z,34.32
2023-05-04T10:15:12.371Z,33.87
2023-05-04T10:17:50.847Z,32.65
2023-05-04T10:20:23.452Z,33.34
2023-05-04T10:22:49.801Z,33.83
2023-05-04T10:25:34.790Z,31.83
2023-05-04T10:28:27.022Z,32.33
2023-05-04T10:31:00.115Z,31.77
2023-05-04T10:33:26.942Z,32.65
2023-05-04T10:35:54.028Z,32.26
2023-05-04T10:38:31.617Z,32.11
2023-05-04T10:40:58.099Z,30.66
2023-05-04T10:43:24.596Z,30.15
2023-05-04T10:45:51.556Z,30.89
2023-05-04T10:48:18.060Z,28.78
2023-05-04T10:50:45.892Z,27.96
2023-05-04T10:53:13.187Z,27.99
2023-05-04T10:55:44.269Z,28.41
2023-05-04T10:58:16.836Z,28.78
2023-05-04T11:00:46.663Z,28.76
2023-05-04T11:03:14.154Z,29.56
2023-05-04T11:05:41.051Z,29.91
2023-05-04T11:08:18.526Z,31.20
2023-05-04T11:10:46.431Z,31.35
2023-05-04T11:13:13.180Z,31.05
2023-05-04T11:15:49.101Z,31.05
2023-05-04T11:18:16.516Z,31.54
2023-05-04T11:20:44.492Z,31.44
2023-05-04T11:23:16.272Z,30.54
2023-05-04T11:25:42.736Z,31.38
2023-05-04T11:28:09.489Z,31.25
2023-05-04T11:30:42.296Z,31.53
2023-05-04T11:33:16.259Z,32.28
2023-05-04T11:35:43.923Z,31.58
2023-05-04T11:38:10.694Z,31.63
2023-05-04T11:40:37.539Z,31.60
2023-05-04T11:43:04.315Z,32.34
2023-05-04T11:45:32.476Z,31.38
2023-05-04T11:47:59.530Z,31.56
2023-05-04T11:50:27.283Z,31.44
2023-05-04T11:53:10.447Z,31.22
2023-05-04T11:55:40.261Z,30.93
2023-05-04T11:58:08.414Z,30.52
2023-05-04T12:00:49.144Z,30.29
2023-05-04T12:03:24.458Z,30.33
2023-05-04T12:05:56.097Z,30.71
2023-05-04T12:08:26.307Z,29.16
2023-05-04T12:11:11.883Z,28.00
2023-05-04T12:13:39.429Z,28.95
2023-05-04T12:16:16.780Z,28.27
2023-05-04T12:18:45.259Z,27.84
2023-05-04T12:21:13.533Z,26.56
2023-05-04T12:23:41.346Z,26.83
2023-05-04T12:26:08.996Z,26.90
2023-05-04T12:28:36.371Z,26.88
2023-05-04T12:31:04.535Z,26.64
2023-05-04T12:33:32.175Z,27.32
2023-05-04T12:36:02.053Z,27.30
2023-05-04T12:38:28.993Z,26.68
2023-05-04T12:40:58.711Z,26.57
2023-05-04T12:43:25.255Z,27.50
2023-05-04T12:45:52.575Z,27.70
2023-05-04T12:48:22.874Z,27.26
2023-05-04T12:50:50.807Z,26.67
2023-05-04T12:53:18.317Z,27.13
2023-05-04T12:55:45.088Z,26.69
2023-05-04T12:58:11.575Z,26.60
2023-05-04T13:00:38.807Z,25.92
2023-05-04T13:03:05.795Z,25.27
2023-05-04T13:05:32.337Z,25.56
2023-05-04T13:07:59.097Z,25.17
2023-05-04T13:10:25.705Z,24.53
2023-05-04T13:12:52.295Z,24.75
2023-05-04T13:15:18.988Z,23.88
2023-05-04T13:17:45.566Z,23.32
2023-05-04T13:20:13.107Z,22.64
2023-05-04T13:22:40.186Z,22.07
2023-05-04T13:25:07.704Z,22.52
2023-05-04T13:27:34.799Z,22.32
2023-05-04T13:30:03.445Z,22.45
2023-05-04T13:32:30.882Z,22.08
2023-05-04T13:34:58.563Z,21.85
2023-05-04T13:37:25.069Z,21.49
2023-05-04T13:39:51.605Z,21.86
2023-05-04T13:42:18.019Z,21.97
2023-05-04T13:44:45.409Z,22.72
2023-05-04T13:47:13.144Z,22.75
2023-05-04T13:49:39.897Z,22.83
2023-05-04T13:52:06.498Z,22.65
2023-05-04T13:54:33.070Z,23.15
2023-05-04T13:57:00.543Z,22.75
2023-05-04T13:59:27.017Z,23.15
2023-05-04T14:01:53.566Z,22.42
2023-05-04T14:04:20.040Z,22.62
2023-05-04T14:11:43.828Z,23.05
2023-05-04T14:14:10.225Z,23.26
2023-05-04T14:16:37.622Z,23.33
2023-05-04T14:19:04.144Z,22.78
2023-05-04T14:21:30.621Z,22.56
2023-05-04T14:23:57.068Z,22.78
2023-05-04T14:26:23.539Z,22.37
2023-05-04T14:28:49.955Z,22.85
2023-05-04T14:31:16.429Z,23.36
2023-05-04T14:33:42.918Z,23.58
2023-05-04T14:36:12.254Z,24.25
2023-05-04T14:38:38.787Z,23.79
2023-05-04T14:41:05.828Z,24.00
2023-05-04T14:43:32.580Z,23.67
2023-05-04T14:45:59.376Z,23.82
2023-05-04T14:48:27.531Z,23.58
2023-05-04T14:50:54.623Z,24.34
2023-05-04T14:53:21.796Z,24.97
2023-05-04T14:55:48.314Z,24.75
2023-05-04T14:58:15.510Z,24.78
2023-05-04T15:00:42.140Z,25.23
2023-05-04T15:03:09.345Z,25.75
2023-05-04T15:05:36.006Z,25.02
2023-05-04T15:08:02.871Z,25.32
2023-05-04T15:10:29.365Z,25.07
2023-05-04T15:12:57.305Z,25.86
2023-05-04T15:15:23.794Z,25.20
2023-05-04T15:17:50.604Z,25.22
2023-05-04T15:20:17.601Z,25.28
2023-05-04T15:22:49.079Z,25.22
2023-05-04T15:25:15.636Z,25.58
2023-05-04T15:27:43.636Z,25.31
2023-05-04T15:30:11.451Z,26.20
2023-05-04T15:32:37.912Z,26.16
2023-05-04T15:35:06.309Z,26.01
2023-05-04T15:37:33.237Z,26.64
2023-05-04T15:40:02.011Z,27.55
2023-05-04T15:42:29.003Z,27.11
2023-05-04T15:44:55.642Z,27.08
2023-05-04T15:47:22.213Z,26.61
2023-05-04T15:49:48.749Z,26.82
2023-05-04T15:52:15.205Z,27.00
2023-05-04T15:54:41.675Z,27.29
2023-05-04T15:57:08.166Z,27.80
2023-05-04T15:59:34.578Z,27.76
2023-05-04T16:02:01.028Z,27.32
2023-05-04T16:04:28.015Z,26.94
2023-05-04T16:06:54.466Z,27.37
2023-05-04T16:09:21.020Z,28.07
2023-05-04T16:11:47.474Z,28.28
2023-05-04T16:14:14.313Z,27.82
2023-05-04T16:16:41.464Z,27.40
2023-05-04T16:19:10.127Z,27.83
2023-05-04T16:21:37.925Z,28.07
2023-05-04T16:24:04.744Z,29.13
2023-05-04T16:26:31.251Z,29.19
2023-05-04T16:28:57.796Z,28.58
2023-05-04T16:31:24.299Z,28.44
2023-05-04T16:33:50.841Z,28.99
2023-05-04T16:36:17.406Z,28.77
2023-05-04T16:38:43.882Z,28.32
2023-05-04T16:41:10.456Z,28.68
2023-05-04T16:43:36.930Z,28.86
2023-05-04T16:46:04.536Z,28.94
2023-05-04T16:48:31.145Z,29.33
2023-05-04T16:50:57.612Z,30.15
2023-05-04T16:53:24.134Z,29.80
2023-05-04T16:55:50.955Z,29.76
2023-05-04T16:58:17.605Z,30.00
2023-05-04T17:00:44.103Z,29.92
2023-05-04T17:03:10.669Z,30.14
2023-05-04T17:05:37.216Z,30.58
2023-05-04T17:08:03.807Z,31.05
2023-05-04T17:10:30.389Z,31.96
2023-05-04T17:12:56.884Z,31.68
2023-05-04T17:15:23.469Z,32.32
2023-05-04T17:17:49.931Z,32.66
2023-05-04T17:20:16.461Z,32.56
2023-05-04T17:22:43.193Z,32.82
2023-05-04T17:25:10.840Z,33.19
2023-05-04T17:27:37.354Z,33.38
2023-05-04T17:30:04.566Z,33.61
2023-05-04T17:32:31.217Z,33.95
2023-05-04T17:35:01.247Z,34.44
2023-05-04T17:37:32.094Z,34.34
2023-05-04T17:39:58.561Z,34.56
2023-05-04T17:42:25.288Z,34.63
2023-05-04T17:44:51.707Z,34.21
2023-05-04T17:47:18.175Z,34.94
2023-05-04T17:49:44.652Z,35.23
2023-05-04T17:52:13.732Z,35.28
2023-05-04T17:54:41.330Z,36.07
2023-05-04T17:57:07.736Z,35.67
2023-05-04T17:59:34.239Z,35.47
2023-05-04T18:02:00.754Z,35.83
2023-05-04T18:04:28.661Z,36.09
2023-05-04T18:06:55.051Z,36.21
2023-05-04T18:09:21.608Z,36.41
2023-05-04T18:11:48.028Z,36.80
2023-05-04T18:14:14.562Z,36.90
2023-05-04T18:16:41.206Z,37.05
2023-05-04T18:19:08.063Z,36.73
2023-05-04T18:21:36.506Z,37.11
2023-05-04T18:24:03.992Z,38.00
2023-05-04T18:26:30.555Z,37.59
2023-05-04T18:29:07.389Z,37.49
2023-05-04T18:31:34.408Z,37.90
2023-05-04T18:34:02.757Z,38.50
2023-05-04T18:36:29.633Z,38.38
2023-05-04T18:38:58.646Z,38.58
2023-05-04T18:41:25.670Z,38.90
2023-05-04T18:43:52.269Z,38.32
2023-05-04T18:46:18.852Z,38.83
2023-05-04T18:48:45.464Z,38.77
2023-05-04T18:51:12.927Z,38.30
2023-05-04T18:53:39.314Z,38.12
2023-05-04T18:56:07.809Z,38.38
2023-05-04T18:58:36.104Z,38.75
2023-05-04T19:01:02.719Z,39.14
2023-05-04T19:03:29.369Z,38.79
2023-05-04T19:05:56.108Z,38.63
2023-05-04T19:08:22.656Z,38.22
2023-05-04T19:10:49.763Z,39.45
2023-05-04T19:13:16.644Z,38.99
2023-05-04T19:15:43.845Z,39.10
2023-05-04T19:18:10.566Z,39.05
2023-05-04T19:20:37.632Z,39.20
2023-05-04T19:23:04.269Z,39.13
2023-05-04T19:25:34.764Z,39.38
2023-05-04T19:28:08.327Z,39.47
2023-05-04T19:30:39.352Z,39.51
2023-05-04T19:33:06.783Z,39.43
2023-05-04T19:35:33.437Z,39.52
2023-05-04T19:38:01.609Z,39.77
2023-05-04T19:40:28.342Z,39.60
2023-05-04T19:42:54.785Z,40.18
2023-05-04T19:45:21.299Z,40.21
2023-05-04T19:47:48.450Z,40.35
2023-05-04T19:50:16.378Z,40.63
2023-05-04T19:52:42.884Z,40.95
2023-05-04T19:55:09.708Z,41.23
2023-05-04T19:57:36.634Z,41.37
2023-05-04T20:00:03.790Z,41.32
2023-05-04T20:02:31.065Z,41.67
2023-05-04T20:04:57.802Z,41.70
2023-05-04T20:10:01.617Z,43.08
2023-05-04T20:12:28.131Z,42.75
2023-05-04T20:14:54.647Z,43.32
2023-05-04T20:17:21.102Z,43.59
2023-05-04T20:19:48.269Z,43.19
2023-05-04T20:22:15.077Z,43.72
2023-05-04T20:24:41.625Z,43.53
2023-05-04T20:27:08.472Z,43.85
2023-05-04T20:29:35.035Z,44.01
2023-05-04T20:32:02.918Z,44.23
2023-05-04T20:34:29.404Z,45.03
2023-05-04T20:36:56.377Z,44.79
2023-05-04T20:39:22.853Z,44.94
2023-05-04T20:41:50.383Z,45.23
2023-05-04T20:44:17.159Z,45.14
2023-05-04T20:46:44.268Z,45.55
2023-05-04T20:49:11.305Z,45.93
2023-05-04T20:51:37.965Z,45.81
2023-05-04T20:54:04.742Z,45.50
2023-05-04T20:56:31.223Z,46.16
2023-05-04T20:58:57.629Z,45.95
2023-05-04T21:01:24.240Z,46.04
2023-05-04T21:03:50.994Z,46.08
2023-05-04T21:06:17.551Z,45.75
2023-05-04T21:08:43.946Z,46.42
2023-05-04T21:11:10.548Z,46.06
2023-05-04T21:13:36.934Z,45.91
2023-05-04T21:16:03.612Z,46.17
2023-05-04T21:18:30.164Z,46.26
2023-05-04T21:20:56.557Z,46.02
2023-05-04T21:23:24.908Z,46.00
2023-05-04T21:25:59.746Z,45.88
2023-05-04T21:28:26.157Z,46.21
2023-05-04T21:30:52.618Z,46.22
2023-05-04T21:33:19.015Z,46.85
2023-05-04T21:35:45.522Z,47.09
2023-05-04T21:38:12.852Z,46.85
2023-05-04T21:40:39.295Z,47.48
2023-05-04T21:43:05.826Z,47.66
2023-05-04T21:45:32.691Z,47.82
2023-05-04T21:47:59.663Z,47.78
2023-05-04T21:50:26.556Z,48.28
2023-05-04T21:52:53.028Z,48.19
2023-05-04T21:55:19.737Z,48.43
2023-05-04T21:57:46.473Z,48.69
2023-05-04T22:00:17.395Z,49.39
2023-05-04T22:02:44.764Z,49.81
2023-05-04T22:05:11.607Z,50.07
2023-05-04T22:07:38.149Z,50.34
2023-05-04T22:10:05.162Z,50.70
2023-05-04T22:12:31.772Z,50.75
2023-05-04T22:14:58.259Z,50.38
2023-05-04T22:17:24.759Z,50.75
2023-05-04T22:19:51.338Z,50.88
2023-05-04T22:22:17.791Z,50.69
2023-05-04T22:24:44.256Z,51.09
2023-05-04T22:27:10.699Z,51.47
2023-05-04T22:29:37.143Z,51.96
2023-05-04T22:32:03.692Z,50.92
2023-05-04T22:34:30.107Z,51.51
2023-05-04T22:36:56.757Z,52.08
2023-05-04T22:39:23.287Z,52.22
2023-05-04T22:41:49.748Z,52.64
2023-05-04T22:44:16.158Z,52.17
2023-05-04T22:46:42.745Z,51.84
2023-05-04T22:49:09.332Z,51.90
2023-05-04T22:51:35.829Z,52.32
2023-05-04T22:54:02.373Z,52.48
2023-05-04T22:56:28.896Z,53.09
2023-05-04T22:58:55.351Z,53.25
2023-05-04T23:01:21.943Z,53.11
2023-05-04T23:03:48.989Z,53.32
2023-05-04T23:06:15.640Z,53.54
2023-05-04T23:08:42.282Z,53.63
2023-05-04T23:11:08.678Z,53.37
2023-05-04T23:13:35.403Z,53.87
2023-05-04T23:16:03.751Z,53.87
2023-05-04T23:18:30.419Z,54.05
2023-05-04T23:20:56.901Z,54.50
2023-05-04T23:23:23.312Z,55.04
2023-05-04T23:25:49.705Z,55.33
2023-05-04T23:28:16.267Z,55.78
2023-05-04T23:30:42.790Z,56.06
2023-05-04T23:33:09.315Z,55.07
2023-05-04T23:35:35.901Z,55.40
2023-05-04T23:38:03.635Z,54.57
2023-05-04T23:40:30.164Z,55.50
2023-05-04T23:42:56.755Z,54.30
2023-05-04T23:45:23.250Z,54.93
2023-05-04T23:47:49.772Z,55.38
2023-05-04T23:50:16.266Z,54.64
2023-05-04T23:52:42.819Z,55.60
2023-05-04T23:55:09.649Z,55.60
2023-05-04T23:57:36.420Z,55.74
